sensor_id;sensor_type;location;lat;lon;timestamp;P1;durP1;ratioP1;P2;durP2;ratioP2
47103;SDS011;32853;52.164;5.400;2023-04-24T00:01:47;2.10;;;0.68;;
47103;SDS011;32853;52.164;5.400;2023-04-24T00:04:13;3.55;;;0.50;;
47103;SDS011;32853;52.164;5.400;2023-04-24T00:06:41;0.20;;;0.20;;
47103;SDS011;32853;52.164;5.400;2023-04-24T00:09:09;0.60;;;0.30;;
47103;SDS011;32853;52.164;5.400;2023-04-24T00:11:38;3.35;;;0.45;;
47103;SDS011;32853;52.164;5.400;2023-04-24T00:14:03;0.55;;;0.30;;
47103;SDS011;32853;52.164;5.400;2023-04-24T00:16:29;0.43;;;0.43;;
47103;SDS011;32853;52.164;5.400;2023-04-24T00:18:54;0.75;;;0.28;;
47103;SDS011;32853;52.164;5.400;2023-04-24T00:21:20;0.57;;;0.40;;
47103;SDS011;32853;52.164;5.400;2023-04-24T00:23:46;0.20;;;0.20;;
47103;SDS011;32853;52.164;5.400;2023-04-24T00:26:12;0.68;;;0.50;;
47103;SDS011;32853;52.164;5.400;2023-04-24T00:28:37;0.85;;;0.40;;
47103;SDS011;32853;52.164;5.400;2023-04-24T00:31:03;0.57;;;0.40;;
47103;SDS011;32853;52.164;5.400;2023-04-24T00:33:28;3.60;;;0.38;;
47103;SDS011;32853;52.164;5.400;2023-04-24T00:35:54;0.38;;;0.30;;
47103;SDS011;32853;52.164;5.400;2023-04-24T00:38:19;0.88;;;0.60;;
47103;SDS011;32853;52.164;5.400;2023-04-24T00:40:50;0.60;;;0.47;;
47103;SDS011;32853;52.164;5.400;2023-04-24T00:43:16;1.02;;;0.57;;
47103;SDS011;32853;52.164;5.400;2023-04-24T00:45:42;1.15;;;0.60;;
47103;SDS011;32853;52.164;5.400;2023-04-24T00:48:09;1.17;;;0.60;;
47103;SDS011;32853;52.164;5.400;2023-04-24T00:50:39;0.77;;;0.40;;
47103;SDS011;32853;52.164;5.400;2023-04-24T00:53:05;0.60;;;0.60;;
47103;SDS011;32853;52.164;5.400;2023-04-24T00:55:31;1.70;;;0.70;;
47103;SDS011;32853;52.164;5.400;2023-04-24T00:58:00;2.35;;;0.80;;
47103;SDS011;32853;52.164;5.400;2023-04-24T01:00:34;3.30;;;0.70;;
47103;SDS011;32853;52.164;5.400;2023-04-24T01:03:05;1.13;;;0.80;;
47103;SDS011;32853;52.164;5.400;2023-04-24T01:08:10;2.30;;;0.90;;
47103;SDS011;32853;52.164;5.400;2023-04-24T01:10:40;1.40;;;0.75;;
47103;SDS011;32853;52.164;5.400;2023-04-24T01:13:07;1.77;;;0.95;;
47103;SDS011;32853;52.164;5.400;2023-04-24T01:15:33;1.02;;;0.80;;
47103;SDS011;32853;52.164;5.400;2023-04-24T01:20:47;1.38;;;1.08;;
47103;SDS011;32853;52.164;5.400;2023-04-24T01:23:18;1.50;;;0.85;;
47103;SDS011;32853;52.164;5.400;2023-04-24T01:25:52;3.72;;;1.00;;
47103;SDS011;32853;52.164;5.400;2023-04-24T01:28:24;2.05;;;1.30;;
47103;SDS011;32853;52.164;5.400;2023-04-24T01:30:49;1.45;;;1.00;;
47103;SDS011;32853;52.164;5.400;2023-04-24T01:33:16;2.83;;;1.20;;
47103;SDS011;32853;52.164;5.400;2023-04-24T01:38:15;2.17;;;1.27;;
47103;SDS011;32853;52.164;5.400;2023-04-24T01:40:40;1.75;;;1.10;;
47103;SDS011;32853;52.164;5.400;2023-04-24T01:43:06;2.83;;;1.27;;
47103;SDS011;32853;52.164;5.400;2023-04-24T01:45:31;2.22;;;1.80;;
47103;SDS011;32853;52.164;5.400;2023-04-24T01:47:59;2.92;;;1.42;;
47103;SDS011;32853;52.164;5.400;2023-04-24T01:50:29;3.88;;;1.95;;
47103;SDS011;32853;52.164;5.400;2023-04-24T01:53:09;3.40;;;2.30;;
47103;SDS011;32853;52.164;5.400;2023-04-24T01:58:05;3.17;;;1.85;;
47103;SDS011;32853;52.164;5.400;2023-04-24T02:00:32;3.30;;;2.33;;
47103;SDS011;32853;52.164;5.400;2023-04-24T02:02:58;4.55;;;2.47;;
47103;SDS011;32853;52.164;5.400;2023-04-24T02:05:28;3.85;;;1.73;;
47103;SDS011;32853;52.164;5.400;2023-04-24T02:07:54;7.03;;;2.08;;
47103;SDS011;32853;52.164;5.400;2023-04-24T02:10:19;2.83;;;1.92;;
47103;SDS011;32853;52.164;5.400;2023-04-24T02:12:44;3.58;;;1.95;;
47103;SDS011;32853;52.164;5.400;2023-04-24T02:15:10;3.35;;;2.38;;
47103;SDS011;32853;52.164;5.400;2023-04-24T02:17:39;3.13;;;2.13;;
47103;SDS011;32853;52.164;5.400;2023-04-24T02:20:05;2.95;;;1.67;;
47103;SDS011;32853;52.164;5.400;2023-04-24T02:22:48;3.40;;;2.33;;
47103;SDS011;32853;52.164;5.400;2023-04-24T02:25:20;3.63;;;2.03;;
47103;SDS011;32853;52.164;5.400;2023-04-24T02:30:14;2.65;;;1.52;;
47103;SDS011;32853;52.164;5.400;2023-04-24T02:38:20;4.40;;;1.85;;
47103;SDS011;32853;52.164;5.400;2023-04-24T02:40:49;3.55;;;2.05;;
47103;SDS011;32853;52.164;5.400;2023-04-24T02:43:20;2.92;;;1.88;;
47103;SDS011;32853;52.164;5.400;2023-04-24T02:45:46;2.63;;;1.58;;
47103;SDS011;32853;52.164;5.400;2023-04-24T02:48:14;2.75;;;2.25;;
47103;SDS011;32853;52.164;5.400;2023-04-24T02:50:40;5.47;;;2.15;;
47103;SDS011;32853;52.164;5.400;2023-04-24T02:53:06;1.80;;;1.23;;
47103;SDS011;32853;52.164;5.400;2023-04-24T02:55:36;4.13;;;1.80;;
47103;SDS011;32853;52.164;5.400;2023-04-24T02:58:14;3.95;;;1.63;;
47103;SDS011;32853;52.164;5.400;2023-04-24T03:00:52;3.22;;;2.20;;
47103;SDS011;32853;52.164;5.400;2023-04-24T03:03:24;5.32;;;1.50;;
47103;SDS011;32853;52.164;5.400;2023-04-24T03:05:49;1.98;;;1.20;;
47103;SDS011;32853;52.164;5.400;2023-04-24T03:08:15;3.20;;;1.85;;
47103;SDS011;32853;52.164;5.400;2023-04-24T03:10:40;4.22;;;1.40;;
47103;SDS011;32853;52.164;5.400;2023-04-24T03:13:06;3.42;;;1.27;;
47103;SDS011;32853;52.164;5.400;2023-04-24T03:15:31;2.80;;;1.20;;
47103;SDS011;32853;52.164;5.400;2023-04-24T03:17:56;3.72;;;0.95;;
47103;SDS011;32853;52.164;5.400;2023-04-24T03:22:53;1.55;;;0.70;;
47103;SDS011;32853;52.164;5.400;2023-04-24T03:25:19;1.30;;;0.60;;
47103;SDS011;32853;52.164;5.400;2023-04-24T03:27:59;1.15;;;0.50;;
47103;SDS011;32853;52.164;5.400;2023-04-24T03:30:25;0.93;;;0.77;;
47103;SDS011;32853;52.164;5.400;2023-04-24T03:32:50;1.10;;;0.60;;
47103;SDS011;32853;52.164;5.400;2023-04-24T03:35:15;0.93;;;0.65;;
47103;SDS011;32853;52.164;5.400;2023-04-24T03:37:45;1.05;;;0.60;;
47103;SDS011;32853;52.164;5.400;2023-04-24T03:40:11;0.98;;;0.60;;
47103;SDS011;32853;52.164;5.400;2023-04-24T03:42:43;0.80;;;0.50;;
47103;SDS011;32853;52.164;5.400;2023-04-24T03:45:08;1.35;;;0.60;;
47103;SDS011;32853;52.164;5.400;2023-04-24T03:47:41;1.38;;;0.45;;
47103;SDS011;32853;52.164;5.400;2023-04-24T03:50:07;1.23;;;0.73;;
47103;SDS011;32853;52.164;5.400;2023-04-24T03:52:35;1.70;;;0.60;;
47103;SDS011;32853;52.164;5.400;2023-04-24T03:55:12;2.15;;;0.73;;
47103;SDS011;32853;52.164;5.400;2023-04-24T03:57:52;0.98;;;0.60;;
47103;SDS011;32853;52.164;5.400;2023-04-24T04:00:18;1.13;;;0.50;;
47103;SDS011;32853;52.164;5.400;2023-04-24T04:02:45;0.50;;;0.40;;
47103;SDS011;32853;52.164;5.400;2023-04-24T04:05:12;0.98;;;0.52;;
47103;SDS011;32853;52.164;5.400;2023-04-24T04:07:37;0.77;;;0.50;;
47103;SDS011;32853;52.164;5.400;2023-04-24T04:10:02;1.92;;;0.50;;
47103;SDS011;32853;52.164;5.400;2023-04-24T04:12:28;2.53;;;0.40;;
47103;SDS011;32853;52.164;5.400;2023-04-24T04:15:00;1.13;;;0.57;;
47103;SDS011;32853;52.164;5.400;2023-04-24T04:17:25;0.50;;;0.40;;
47103;SDS011;32853;52.164;5.400;2023-04-24T04:19:50;2.80;;;0.47;;
47103;SDS011;32853;52.164;5.400;2023-04-24T04:22:16;0.65;;;0.40;;
47103;SDS011;32853;52.164;5.400;2023-04-24T04:24:41;2.47;;;1.10;;
47103;SDS011;32853;52.164;5.400;2023-04-24T04:27:07;4.10;;;0.63;;
47103;SDS011;32853;52.164;5.400;2023-04-24T04:29:33;0.60;;;0.40;;
47103;SDS011;32853;52.164;5.400;2023-04-24T04:32:00;0.40;;;0.40;;
47103;SDS011;32853;52.164;5.400;2023-04-24T04:34:26;0.68;;;0.52;;
47103;SDS011;32853;52.164;5.400;2023-04-24T04:36:51;1.73;;;0.43;;
47103;SDS011;32853;52.164;5.400;2023-04-24T04:39:17;1.08;;;0.70;;
47103;SDS011;32853;52.164;5.400;2023-04-24T04:41:43;1.58;;;0.80;;
47103;SDS011;32853;52.164;5.400;2023-04-24T04:44:09;3.92;;;1.95;;
47103;SDS011;32853;52.164;5.400;2023-04-24T04:46:34;1.75;;;1.05;;
47103;SDS011;32853;52.164;5.400;2023-04-24T04:49:02;4.95;;;0.93;;
47103;SDS011;32853;52.164;5.400;2023-04-24T04:51:27;1.75;;;1.00;;
47103;SDS011;32853;52.164;5.400;2023-04-24T04:53:53;2.53;;;1.20;;
47103;SDS011;32853;52.164;5.400;2023-04-24T04:56:18;3.00;;;0.93;;
47103;SDS011;32853;52.164;5.400;2023-04-24T04:58:46;2.30;;;1.20;;
47103;SDS011;32853;52.164;5.400;2023-04-24T05:01:11;3.30;;;1.92;;
47103;SDS011;32853;52.164;5.400;2023-04-24T05:03:38;1.98;;;1.30;;
47103;SDS011;32853;52.164;5.400;2023-04-24T05:06:04;2.22;;;1.38;;
47103;SDS011;32853;52.164;5.400;2023-04-24T05:08:33;2.42;;;1.60;;
47103;SDS011;32853;52.164;5.400;2023-04-24T05:10:59;4.30;;;2.40;;
47103;SDS011;32853;52.164;5.400;2023-04-24T05:13:25;3.20;;;1.52;;
47103;SDS011;32853;52.164;5.400;2023-04-24T05:15:51;2.88;;;1.67;;
47103;SDS011;32853;52.164;5.400;2023-04-24T05:18:19;4.10;;;2.00;;
47103;SDS011;32853;52.164;5.400;2023-04-24T05:20:51;3.67;;;1.67;;
47103;SDS011;32853;52.164;5.400;2023-04-24T05:23:17;5.00;;;1.80;;
47103;SDS011;32853;52.164;5.400;2023-04-24T05:25:42;2.60;;;1.65;;
47103;SDS011;32853;52.164;5.400;2023-04-24T05:28:08;3.58;;;2.00;;
47103;SDS011;32853;52.164;5.400;2023-04-24T05:30:42;4.53;;;2.08;;
47103;SDS011;32853;52.164;5.400;2023-04-24T05:33:10;4.72;;;2.05;;
47103;SDS011;32853;52.164;5.400;2023-04-24T05:35:36;4.07;;;2.10;;
47103;SDS011;32853;52.164;5.400;2023-04-24T05:38:01;3.92;;;2.13;;
47103;SDS011;32853;52.164;5.400;2023-04-24T05:40:31;4.40;;;2.47;;
47103;SDS011;32853;52.164;5.400;2023-04-24T05:43:01;4.63;;;2.13;;
47103;SDS011;32853;52.164;5.400;2023-04-24T05:47:56;4.32;;;2.10;;
47103;SDS011;32853;52.164;5.400;2023-04-24T05:50:27;4.18;;;2.22;;
47103;SDS011;32853;52.164;5.400;2023-04-24T05:53:00;2.22;;;1.45;;
47103;SDS011;32853;52.164;5.400;2023-04-24T05:55:28;7.03;;;1.30;;
47103;SDS011;32853;52.164;5.400;2023-04-24T05:57:53;3.50;;;1.90;;
47103;SDS011;32853;52.164;5.400;2023-04-24T06:00:25;3.22;;;1.30;;
47103;SDS011;32853;52.164;5.400;2023-04-24T06:03:06;1.77;;;1.17;;
47103;SDS011;32853;52.164;5.400;2023-04-24T06:05:34;3.10;;;1.02;;
47103;SDS011;32853;52.164;5.400;2023-04-24T06:08:04;2.25;;;0.90;;
47103;SDS011;32853;52.164;5.400;2023-04-24T06:10:29;2.20;;;1.08;;
47103;SDS011;32853;52.164;5.400;2023-04-24T06:13:13;4.30;;;0.43;;
47103;SDS011;32853;52.164;5.400;2023-04-24T06:15:38;0.47;;;0.20;;
47103;SDS011;32853;52.164;5.400;2023-04-24T06:18:04;3.22;;;0.30;;
47103;SDS011;32853;52.164;5.400;2023-04-24T06:20:29;0.52;;;0.30;;
47103;SDS011;32853;52.164;5.400;2023-04-24T06:22:54;1.17;;;0.60;;
47103;SDS011;32853;52.164;5.400;2023-04-24T06:25:20;0.30;;;0.20;;
47103;SDS011;32853;52.164;5.400;2023-04-24T06:27:45;0.52;;;0.22;;
47103;SDS011;32853;52.164;5.400;2023-04-24T06:30:11;0.55;;;0.35;;
47103;SDS011;32853;52.164;5.400;2023-04-24T06:32:37;1.30;;;0.40;;
47103;SDS011;32853;52.164;5.400;2023-04-24T06:35:02;0.93;;;0.73;;
47103;SDS011;32853;52.164;5.400;2023-04-24T06:37:28;8.93;;;0.90;;
47103;SDS011;32853;52.164;5.400;2023-04-24T06:39:54;3.22;;;1.67;;
47103;SDS011;32853;52.164;5.400;2023-04-24T06:42:19;4.93;;;1.92;;
47103;SDS011;32853;52.164;5.400;2023-04-24T06:47:17;11.38;;;3.95;;
47103;SDS011;32853;52.164;5.400;2023-04-24T06:49:43;10.82;;;3.95;;
47103;SDS011;32853;52.164;5.400;2023-04-24T06:52:14;11.38;;;4.65;;
47103;SDS011;32853;52.164;5.400;2023-04-24T06:54:41;8.77;;;4.63;;
47103;SDS011;32853;52.164;5.400;2023-04-24T06:57:06;12.23;;;5.53;;
47103;SDS011;32853;52.164;5.400;2023-04-24T06:59:33;10.50;;;4.80;;
47103;SDS011;32853;52.164;5.400;2023-04-24T07:01:59;11.02;;;4.75;;
47103;SDS011;32853;52.164;5.400;2023-04-24T07:04:25;13.65;;;4.80;;
47103;SDS011;32853;52.164;5.400;2023-04-24T07:06:56;12.07;;;5.13;;
47103;SDS011;32853;52.164;5.400;2023-04-24T07:09:35;22.77;;;5.85;;
47103;SDS011;32853;52.164;5.400;2023-04-24T07:12:03;10.27;;;5.47;;
47103;SDS011;32853;52.164;5.400;2023-04-24T07:14:37;11.63;;;5.55;;
47103;SDS011;32853;52.164;5.400;2023-04-24T07:17:10;14.30;;;6.10;;
47103;SDS011;32853;52.164;5.400;2023-04-24T07:19:37;6.53;;;4.07;;
47103;SDS011;32853;52.164;5.400;2023-04-24T07:22:02;10.93;;;5.03;;
47103;SDS011;32853;52.164;5.400;2023-04-24T07:24:28;8.38;;;4.35;;
47103;SDS011;32853;52.164;5.400;2023-04-24T07:26:54;8.45;;;4.72;;
47103;SDS011;32853;52.164;5.400;2023-04-24T07:29:32;9.25;;;5.55;;
47103;SDS011;32853;52.164;5.400;2023-04-24T07:31:58;11.50;;;4.55;;
47103;SDS011;32853;52.164;5.400;2023-04-24T07:34:23;14.15;;;5.15;;
47103;SDS011;32853;52.164;5.400;2023-04-24T07:36:49;11.18;;;5.07;;
47103;SDS011;32853;52.164;5.400;2023-04-24T07:39:14;6.97;;;3.78;;
47103;SDS011;32853;52.164;5.400;2023-04-24T07:41:42;13.85;;;6.15;;
47103;SDS011;32853;52.164;5.400;2023-04-24T07:44:07;10.90;;;4.13;;
47103;SDS011;32853;52.164;5.400;2023-04-24T07:46:32;12.55;;;4.55;;
47103;SDS011;32853;52.164;5.400;2023-04-24T07:48:58;12.90;;;4.75;;
47103;SDS011;32853;52.164;5.400;2023-04-24T07:51:25;16.17;;;5.78;;
47103;SDS011;32853;52.164;5.400;2023-04-24T07:53:52;12.43;;;5.47;;
47103;SDS011;32853;52.164;5.400;2023-04-24T07:56:24;9.90;;;4.40;;
47103;SDS011;32853;52.164;5.400;2023-04-24T07:58:52;10.57;;;5.20;;
47103;SDS011;32853;52.164;5.400;2023-04-24T08:01:18;9.85;;;4.25;;
47103;SDS011;32853;52.164;5.400;2023-04-24T08:03:45;15.10;;;5.15;;
47103;SDS011;32853;52.164;5.400;2023-04-24T08:06:12;9.90;;;4.40;;
47103;SDS011;32853;52.164;5.400;2023-04-24T08:08:37;9.45;;;4.38;;
47103;SDS011;32853;52.164;5.400;2023-04-24T08:11:03;13.63;;;4.38;;
47103;SDS011;32853;52.164;5.400;2023-04-24T08:13:28;23.90;;;3.95;;
47103;SDS011;32853;52.164;5.400;2023-04-24T08:15:53;10.38;;;3.85;;
47103;SDS011;32853;52.164;5.400;2023-04-24T08:18:35;4.32;;;3.10;;
47103;SDS011;32853;52.164;5.400;2023-04-24T08:21:00;11.02;;;3.35;;
47103;SDS011;32853;52.164;5.400;2023-04-24T08:23:26;10.75;;;2.78;;
47103;SDS011;32853;52.164;5.400;2023-04-24T08:25:52;15.77;;;2.63;;
47103;SDS011;32853;52.164;5.400;2023-04-24T08:28:17;12.30;;;2.80;;
47103;SDS011;32853;52.164;5.400;2023-04-24T08:30:45;3.22;;;1.67;;
47103;SDS011;32853;52.164;5.400;2023-04-24T08:33:11;6.88;;;1.60;;
47103;SDS011;32853;52.164;5.400;2023-04-24T08:35:37;8.43;;;2.20;;
47103;SDS011;32853;52.164;5.400;2023-04-24T08:38:03;3.72;;;1.50;;
47103;SDS011;32853;52.164;5.400;2023-04-24T08:40:28;5.13;;;1.98;;
47103;SDS011;32853;52.164;5.400;2023-04-24T08:42:55;13.80;;;2.20;;
47103;SDS011;32853;52.164;5.400;2023-04-24T08:45:23;10.73;;;2.65;;
47103;SDS011;32853;52.164;5.400;2023-04-24T08:47:50;12.10;;;3.08;;
47103;SDS011;32853;52.164;5.400;2023-04-24T08:50:18;6.65;;;1.95;;
47103;SDS011;32853;52.164;5.400;2023-04-24T08:52:51;8.25;;;2.47;;
47103;SDS011;32853;52.164;5.400;2023-04-24T08:55:19;19.35;;;2.42;;
47103;SDS011;32853;52.164;5.400;2023-04-24T08:57:45;8.02;;;1.80;;
47103;SDS011;32853;52.164;5.400;2023-04-24T09:00:15;7.00;;;1.38;;
47103;SDS011;32853;52.164;5.400;2023-04-24T09:02:44;13.75;;;2.28;;
47103;SDS011;32853;52.164;5.400;2023-04-24T09:05:12;14.70;;;1.67;;
47103;SDS011;32853;52.164;5.400;2023-04-24T09:07:39;7.72;;;1.85;;
47103;SDS011;32853;52.164;5.400;2023-04-24T09:10:07;6.38;;;1.13;;
47103;SDS011;32853;52.164;5.400;2023-04-24T09:12:33;13.60;;;3.13;;
47103;SDS011;32853;52.164;5.400;2023-04-24T09:14:59;6.07;;;1.05;;
47103;SDS011;32853;52.164;5.400;2023-04-24T09:17:39;8.73;;;1.63;;
47103;SDS011;32853;52.164;5.400;2023-04-24T09:20:05;10.88;;;1.95;;
47103;SDS011;32853;52.164;5.400;2023-04-24T09:22:34;6.63;;;1.33;;
47103;SDS011;32853;52.164;5.400;2023-04-24T09:25:07;13.13;;;2.75;;
47103;SDS011;32853;52.164;5.400;2023-04-24T09:27:44;4.22;;;1.13;;
47103;SDS011;32853;52.164;5.400;2023-04-24T09:30:10;7.82;;;1.00;;
47103;SDS011;32853;52.164;5.400;2023-04-24T09:32:36;16.23;;;0.98;;
47103;SDS011;32853;52.164;5.400;2023-04-24T09:35:05;4.97;;;0.80;;
47103;SDS011;32853;52.164;5.400;2023-04-24T09:37:39;5.97;;;1.05;;
47103;SDS011;32853;52.164;5.400;2023-04-24T09:40:21;4.82;;;1.10;;
47103;SDS011;32853;52.164;5.400;2023-04-24T09:42:56;7.28;;;1.40;;
47103;SDS011;32853;52.164;5.400;2023-04-24T09:48:05;6.97;;;1.55;;
47103;SDS011;32853;52.164;5.400;2023-04-24T09:50:37;11.48;;;1.30;;
47103;SDS011;32853;52.164;5.400;2023-04-24T09:53:03;4.40;;;0.95;;
47103;SDS011;32853;52.164;5.400;2023-04-24T09:55:33;10.52;;;1.48;;
47103;SDS011;32853;52.164;5.400;2023-04-24T09:58:04;9.65;;;1.85;;
47103;SDS011;32853;52.164;5.400;2023-04-24T10:00:31;8.35;;;2.03;;
47103;SDS011;32853;52.164;5.400;2023-04-24T10:05:35;6.57;;;1.63;;
47103;SDS011;32853;52.164;5.400;2023-04-24T10:08:06;3.00;;;0.90;;
47103;SDS011;32853;52.164;5.400;2023-04-24T10:10:38;4.43;;;1.02;;
47103;SDS011;32853;52.164;5.400;2023-04-24T10:13:15;4.60;;;1.10;;
47103;SDS011;32853;52.164;5.400;2023-04-24T10:15:49;8.80;;;0.88;;
47103;SDS011;32853;52.164;5.400;2023-04-24T10:18:15;8.82;;;1.27;;
47103;SDS011;32853;52.164;5.400;2023-04-24T10:20:45;6.85;;;0.90;;
47103;SDS011;32853;52.164;5.400;2023-04-24T10:23:10;12.80;;;1.48;;
47103;SDS011;32853;52.164;5.400;2023-04-24T10:25:37;5.65;;;2.05;;
47103;SDS011;32853;52.164;5.400;2023-04-24T10:28:02;5.68;;;1.27;;
47103;SDS011;32853;52.164;5.400;2023-04-24T10:30:32;7.10;;;0.70;;
47103;SDS011;32853;52.164;5.400;2023-04-24T10:33:07;5.05;;;0.40;;
47103;SDS011;32853;52.164;5.400;2023-04-24T10:35:35;5.15;;;0.52;;
47103;SDS011;32853;52.164;5.400;2023-04-24T10:38:06;4.65;;;0.55;;
47103;SDS011;32853;52.164;5.400;2023-04-24T10:40:38;2.70;;;0.32;;
47103;SDS011;32853;52.164;5.400;2023-04-24T10:43:04;3.17;;;0.40;;
47103;SDS011;32853;52.164;5.400;2023-04-24T10:45:33;1.05;;;0.50;;
47103;SDS011;32853;52.164;5.400;2023-04-24T10:48:06;5.65;;;0.73;;
47103;SDS011;32853;52.164;5.400;2023-04-24T10:50:50;3.97;;;0.35;;
47103;SDS011;32853;52.164;5.400;2023-04-24T10:53:18;7.63;;;0.63;;
47103;SDS011;32853;52.164;5.400;2023-04-24T10:55:49;3.17;;;0.50;;
47103;SDS011;32853;52.164;5.400;2023-04-24T10:58:21;1.80;;;0.30;;
47103;SDS011;32853;52.164;5.400;2023-04-24T11:00:58;0.85;;;0.40;;
47103;SDS011;32853;52.164;5.400;2023-04-24T11:03:29;0.82;;;0.40;;
47103;SDS011;32853;52.164;5.400;2023-04-24T11:05:57;3.53;;;0.50;;
47103;SDS011;32853;52.164;5.400;2023-04-24T11:08:23;3.50;;;0.60;;
47103;SDS011;32853;52.164;5.400;2023-04-24T11:10:55;1.48;;;0.50;;
47103;SDS011;32853;52.164;5.400;2023-04-24T11:13:22;3.40;;;0.63;;
47103;SDS011;32853;52.164;5.400;2023-04-24T11:18:45;3.95;;;0.40;;
47103;SDS011;32853;52.164;5.400;2023-04-24T11:21:15;2.17;;;0.40;;
47103;SDS011;32853;52.164;5.400;2023-04-24T11:23:42;9.10;;;0.77;;
47103;SDS011;32853;52.164;5.400;2023-04-24T11:29:07;2.33;;;0.68;;
47103;SDS011;32853;52.164;5.400;2023-04-24T11:34:05;2.67;;;0.50;;
47103;SDS011;32853;52.164;5.400;2023-04-24T11:36:32;3.20;;;0.73;;
47103;SDS011;32853;52.164;5.400;2023-04-24T11:38:59;3.88;;;0.38;;
47103;SDS011;32853;52.164;5.400;2023-04-24T11:41:24;1.08;;;0.40;;
47103;SDS011;32853;52.164;5.400;2023-04-24T11:43:52;0.20;;;0.20;;
47103;SDS011;32853;52.164;5.400;2023-04-24T11:49:08;4.88;;;0.32;;
47103;SDS011;32853;52.164;5.400;2023-04-24T11:54:38;1.55;;;0.20;;
47103;SDS011;32853;52.164;5.400;2023-04-24T11:57:15;2.70;;;0.25;;
47103;SDS011;32853;52.164;5.400;2023-04-24T11:59:45;3.17;;;1.83;;
47103;SDS011;32853;52.164;5.400;2023-04-24T12:02:21;2.70;;;0.30;;
47103;SDS011;32853;52.164;5.400;2023-04-24T12:04:47;3.25;;;0.40;;
47103;SDS011;32853;52.164;5.400;2023-04-24T12:07:12;0.70;;;0.28;;
47103;SDS011;32853;52.164;5.400;2023-04-24T12:09:41;2.53;;;0.30;;
47103;SDS011;32853;52.164;5.400;2023-04-24T12:12:11;2.58;;;0.40;;
47103;SDS011;32853;52.164;5.400;2023-04-24T12:14:53;7.72;;;0.77;;
47103;SDS011;32853;52.164;5.400;2023-04-24T12:17:30;4.15;;;0.40;;
47103;SDS011;32853;52.164;5.400;2023-04-24T12:19:57;2.53;;;0.45;;
47103;SDS011;32853;52.164;5.400;2023-04-24T12:22:28;5.45;;;0.40;;
47103;SDS011;32853;52.164;5.400;2023-04-24T12:25:14;1.70;;;0.65;;
47103;SDS011;32853;52.164;5.400;2023-04-24T12:27:40;6.57;;;0.30;;
47103;SDS011;32853;52.164;5.400;2023-04-24T12:30:12;5.43;;;0.40;;
47103;SDS011;32853;52.164;5.400;2023-04-24T12:32:42;3.05;;;0.70;;
47103;SDS011;32853;52.164;5.400;2023-04-24T12:35:08;4.05;;;0.45;;
47103;SDS011;32853;52.164;5.400;2023-04-24T12:37:41;1.55;;;0.50;;
47103;SDS011;32853;52.164;5.400;2023-04-24T12:40:09;4.28;;;0.60;;
47103;SDS011;32853;52.164;5.400;2023-04-24T12:42:41;3.80;;;0.60;;
47103;SDS011;32853;52.164;5.400;2023-04-24T12:45:15;3.10;;;0.40;;
47103;SDS011;32853;52.164;5.400;2023-04-24T12:47:42;6.22;;;0.60;;
47103;SDS011;32853;52.164;5.400;2023-04-24T12:50:09;2.72;;;0.57;;
47103;SDS011;32853;52.164;5.400;2023-04-24T12:52:36;3.38;;;0.60;;
47103;SDS011;32853;52.164;5.400;2023-04-24T12:55:07;9.00;;;3.25;;
47103;SDS011;32853;52.164;5.400;2023-04-24T12:57:34;6.45;;;0.88;;
47103;SDS011;32853;52.164;5.400;2023-04-24T13:00:00;9.77;;;1.02;;
47103;SDS011;32853;52.164;5.400;2023-04-24T13:02:27;4.93;;;0.73;;
47103;SDS011;32853;52.164;5.400;2023-04-24T13:04:54;7.85;;;1.38;;
47103;SDS011;32853;52.164;5.400;2023-04-24T13:07:20;5.35;;;0.90;;
47103;SDS011;32853;52.164;5.400;2023-04-24T13:09:47;7.25;;;1.02;;
47103;SDS011;32853;52.164;5.400;2023-04-24T13:12:15;5.28;;;0.90;;
47103;SDS011;32853;52.164;5.400;2023-04-24T13:14:44;10.30;;;1.00;;
47103;SDS011;32853;52.164;5.400;2023-04-24T13:17:11;6.65;;;1.30;;
47103;SDS011;32853;52.164;5.400;2023-04-24T13:19:49;17.45;;;1.35;;
47103;SDS011;32853;52.164;5.400;2023-04-24T13:22:15;6.22;;;1.23;;
47103;SDS011;32853;52.164;5.400;2023-04-24T13:24:42;6.20;;;1.25;;
47103;SDS011;32853;52.164;5.400;2023-04-24T13:27:07;8.48;;;1.55;;
47103;SDS011;32853;52.164;5.400;2023-04-24T13:29:38;9.93;;;1.42;;
47103;SDS011;32853;52.164;5.400;2023-04-24T13:32:03;9.85;;;1.48;;
47103;SDS011;32853;52.164;5.400;2023-04-24T13:34:29;11.10;;;1.08;;
47103;SDS011;32853;52.164;5.400;2023-04-24T13:36:55;9.18;;;1.00;;
47103;SDS011;32853;52.164;5.400;2023-04-24T13:39:22;6.55;;;1.23;;
47103;SDS011;32853;52.164;5.400;2023-04-24T13:41:48;2.72;;;0.90;;
47103;SDS011;32853;52.164;5.400;2023-04-24T13:44:14;17.20;;;1.60;;
47103;SDS011;32853;52.164;5.400;2023-04-24T13:46:51;12.23;;;1.33;;
47103;SDS011;32853;52.164;5.400;2023-04-24T13:49:30;9.10;;;1.25;;
47103;SDS011;32853;52.164;5.400;2023-04-24T13:51:56;7.05;;;1.35;;
47103;SDS011;32853;52.164;5.400;2023-04-24T13:54:21;6.38;;;1.52;;
47103;SDS011;32853;52.164;5.400;2023-04-24T13:56:51;5.15;;;0.98;;
47103;SDS011;32853;52.164;5.400;2023-04-24T13:59:19;13.00;;;1.95;;
47103;SDS011;32853;52.164;5.400;2023-04-24T14:01:46;7.60;;;1.45;;
47103;SDS011;32853;52.164;5.400;2023-04-24T14:04:12;11.25;;;2.25;;
47103;SDS011;32853;52.164;5.400;2023-04-24T14:06:37;4.88;;;1.50;;
47103;SDS011;32853;52.164;5.400;2023-04-24T14:09:03;11.20;;;1.33;;
47103;SDS011;32853;52.164;5.400;2023-04-24T14:11:29;6.15;;;1.55;;
47103;SDS011;32853;52.164;5.400;2023-04-24T14:13:54;8.68;;;1.35;;
47103;SDS011;32853;52.164;5.400;2023-04-24T14:16:23;5.63;;;1.10;;
47103;SDS011;32853;52.164;5.400;2023-04-24T14:18:54;6.63;;;1.45;;
47103;SDS011;32853;52.164;5.400;2023-04-24T14:21:27;12.27;;;1.40;;
47103;SDS011;32853;52.164;5.400;2023-04-24T14:23:56;14.07;;;1.73;;
47103;SDS011;32853;52.164;5.400;2023-04-24T14:26:21;4.93;;;1.20;;
47103;SDS011;32853;52.164;5.400;2023-04-24T14:28:50;9.73;;;1.75;;
47103;SDS011;32853;52.164;5.400;2023-04-24T14:31:15;13.43;;;1.85;;
47103;SDS011;32853;52.164;5.400;2023-04-24T14:33:49;6.30;;;1.20;;
47103;SDS011;32853;52.164;5.400;2023-04-24T14:36:15;11.88;;;2.05;;
47103;SDS011;32853;52.164;5.400;2023-04-24T14:38:40;9.40;;;1.95;;
47103;SDS011;32853;52.164;5.400;2023-04-24T14:41:06;10.57;;;1.67;;
47103;SDS011;32853;52.164;5.400;2023-04-24T14:43:34;9.27;;;1.10;;
47103;SDS011;32853;52.164;5.400;2023-04-24T14:46:00;9.65;;;1.75;;
47103;SDS011;32853;52.164;5.400;2023-04-24T14:48:26;13.70;;;1.95;;
47103;SDS011;32853;52.164;5.400;2023-04-24T14:50:51;9.82;;;1.55;;
47103;SDS011;32853;52.164;5.400;2023-04-24T14:53:17;4.25;;;1.10;;
47103;SDS011;32853;52.164;5.400;2023-04-24T14:55:42;11.43;;;1.23;;
47103;SDS011;32853;52.164;5.400;2023-04-24T14:58:08;10.70;;;1.13;;
47103;SDS011;32853;52.164;5.400;2023-04-24T15:00:33;17.10;;;2.83;;
47103;SDS011;32853;52.164;5.400;2023-04-24T15:03:00;11.32;;;1.83;;
47103;SDS011;32853;52.164;5.400;2023-04-24T15:05:31;7.72;;;1.33;;
47103;SDS011;32853;52.164;5.400;2023-04-24T15:08:02;8.45;;;1.05;;
47103;SDS011;32853;52.164;5.400;2023-04-24T15:10:30;5.28;;;1.92;;
47103;SDS011;32853;52.164;5.400;2023-04-24T15:12:55;10.70;;;1.17;;
47103;SDS011;32853;52.164;5.400;2023-04-24T15:15:25;5.72;;;1.27;;
47103;SDS011;32853;52.164;5.400;2023-04-24T15:20:23;10.57;;;1.25;;
47103;SDS011;32853;52.164;5.400;2023-04-24T15:23:02;6.05;;;1.40;;
47103;SDS011;32853;52.164;5.400;2023-04-24T15:25:30;13.30;;;1.55;;
47103;SDS011;32853;52.164;5.400;2023-04-24T15:28:03;6.72;;;2.13;;
47103;SDS011;32853;52.164;5.400;2023-04-24T15:33:08;7.28;;;1.60;;
47103;SDS011;32853;52.164;5.400;2023-04-24T15:35:34;10.85;;;1.17;;
47103;SDS011;32853;52.164;5.400;2023-04-24T15:38:00;8.30;;;1.55;;
47103;SDS011;32853;52.164;5.400;2023-04-24T15:40:26;6.20;;;1.10;;
47103;SDS011;32853;52.164;5.400;2023-04-24T15:43:01;12.05;;;1.88;;